Pontiac, MI (48340)

10:04 PM EST on February 05, 2016 (GMT -0500)
2 mi SE of the Palace | | Change Station
CLOSE
Current Station
Personal Weather Station
Location: Auburn Hills, MI
Elevation: 950 ft
Nearby Weather Stations

Elev 950 ft 42.67 °N, 83.23 °W | Updated 5 seconds ago

Overcast
Overcast
31.5 °F
Feels Like 32 °F
N
0.0
Wind Variable Wind from NW
Gusts 0.0 mph

Today
High -- | Low -- °F
--% Chance of Precip.
Yesterday
High -- | Low -- °F
Precip. -- in
Pressure 30.28 in
Visibility 8.0 miles
Clouds Few 6000 ft
Scattered Clouds 12000 ft
Windchill 32 °F
Dew Point 24 °F
Humidity 72%
Rainfall 0.00 in
Snow Depth Not available.
7:43 AM 5:51 PM
Waning Crescent, 8% visible
METAR KPTK 060253Z 30004KT 8SM FEW060 SCT120 M02/M03 A3024 RMK AO2 SLP253 60000 T10221033 58011
Pressure 30.28 in
Visibility 8.0 miles
Clouds Few 6000 ft
Scattered Clouds 12000 ft
Windchill 32 °F
Dew Point 24 °F
Humidity 72%
Rainfall 0.00 in
Snow Depth Not available.
7:43 AM 5:51 PM
Waning Crescent, 8% visible
METAR KPTK 060253Z 30004KT 8SM FEW060 SCT120 M02/M03 A3024 RMK AO2 SLP253 60000 T10221033 58011

10-Day Weather Forecast

Almanac

Astronomy

Feb. 05, 2016 Rise Set
Actual Time
Civil Twilight
Nautical Twilight
Astronomical Twilight
Moon
Length of Visible Light
Length of Day
Tomorrow will be .
, % of the Moon is Illuminated

Today's Extremes

State Highs State Lows

Community

WunderPhotos

Upload Photos

1,890,915 photos uploaded!

WunderBlog® & News

Nearby

Air Quality

  Air Quality AQ Index Pollutant
Not available.

Snow Depth

Station Depth Elevation

Earthquake Activity

City Distance Mag. Time & Date
Minimum magnitude displayed is 2.5.

Coastal Water Temperatures

Place Temperature

Stations

Nearby Weather Stations

Station Location Temp. Windchill Dew Point Humidity Wind Precip. Elev Updated Type
                   

Watches & Warnings

There are currently no watches in effect.